sensor_id;sensor_type;location;lat;lon;timestamp;pressure;altitude;pressure_sealevel;temperature;humidity
47716;BME280;33476;50.984;3.538;2023-05-29T00:01:18;102325.88;;;17.78;57.78
47716;BME280;33476;50.984;3.538;2023-05-29T00:03:46;102335.09;;;17.69;58.11
47716;BME280;33476;50.984;3.538;2023-05-29T00:06:13;102332.09;;;17.60;58.71
47716;BME280;33476;50.984;3.538;2023-05-29T00:08:38;102322.56;;;17.57;58.79
47716;BME280;33476;50.984;3.538;2023-05-29T00:11:04;102316.66;;;17.52;59.18
47716;BME280;33476;50.984;3.538;2023-05-29T00:13:29;102330.03;;;17.49;59.18
47716;BME280;33476;50.984;3.538;2023-05-29T00:15:54;102331.31;;;17.42;59.38
47716;BME280;33476;50.984;3.538;2023-05-29T00:18:20;102328.56;;;17.44;58.93
47716;BME280;33476;50.984;3.538;2023-05-29T00:20:46;102333.75;;;17.45;58.85
47716;BME280;33476;50.984;3.538;2023-05-29T00:23:11;102328.56;;;17.44;58.80
47716;BME280;33476;50.984;3.538;2023-05-29T00:25:36;102334.03;;;17.40;58.80
47716;BME280;33476;50.984;3.538;2023-05-29T00:28:02;102319.78;;;17.43;58.67
47716;BME280;33476;50.984;3.538;2023-05-29T00:30:27;102328.03;;;17.37;58.61
47716;BME280;33476;50.984;3.538;2023-05-29T00:32:53;102328.22;;;17.34;58.74
47716;BME280;33476;50.984;3.538;2023-05-29T00:35:19;102329.31;;;17.30;58.74
47716;BME280;33476;50.984;3.538;2023-05-29T00:37:45;102335.50;;;17.29;58.67
47716;BME280;33476;50.984;3.538;2023-05-29T00:40:10;102346.50;;;17.21;58.94
47716;BME280;33476;50.984;3.538;2023-05-29T00:42:36;102351.91;;;17.18;59.01
47716;BME280;33476;50.984;3.538;2023-05-29T00:45:02;102343.06;;;17.19;58.95
47716;BME280;33476;50.984;3.538;2023-05-29T00:47:28;102340.50;;;17.18;58.98
47716;BME280;33476;50.984;3.538;2023-05-29T00:49:55;102341.59;;;17.13;58.92
47716;BME280;33476;50.984;3.538;2023-05-29T00:52:21;102333.44;;;17.18;58.74
47716;BME280;33476;50.984;3.538;2023-05-29T00:54:46;102333.59;;;17.15;58.78
47716;BME280;33476;50.984;3.538;2023-05-29T00:57:12;102336.63;;;17.07;59.08
47716;BME280;33476;50.984;3.538;2023-05-29T00:59:39;102335.16;;;17.02;59.11
47716;BME280;33476;50.984;3.538;2023-05-29T01:02:06;102339.56;;;17.01;59.09
47716;BME280;33476;50.984;3.538;2023-05-29T01:04:31;102337.09;;;16.98;59.21
47716;BME280;33476;50.984;3.538;2023-05-29T01:07:03;102342.28;;;17.00;59.04
47716;BME280;33476;50.984;3.538;2023-05-29T01:09:29;102338.88;;;16.98;59.30
47716;BME280;33476;50.984;3.538;2023-05-29T01:12:23;102347.31;;;16.87;59.34
47716;BME280;33476;50.984;3.538;2023-05-29T01:20:35;102338.63;;;16.85;58.88
47716;BME280;33476;50.984;3.538;2023-05-29T01:28:21;102341.75;;;16.76;58.78
47716;BME280;33476;50.984;3.538;2023-05-29T01:30:50;102340.03;;;16.75;58.85
47716;BME280;33476;50.984;3.538;2023-05-29T01:33:17;102343.75;;;16.71;58.63
47716;BME280;33476;50.984;3.538;2023-05-29T01:35:42;102341.19;;;16.69;58.56
47716;BME280;33476;50.984;3.538;2023-05-29T01:38:08;102351.88;;;16.66;58.38
47716;BME280;33476;50.984;3.538;2023-05-29T01:40:33;102350.25;;;16.64;58.30
47716;BME280;33476;50.984;3.538;2023-05-29T01:42:59;102351.38;;;16.58;58.31
47716;BME280;33476;50.984;3.538;2023-05-29T01:45:24;102346.72;;;16.63;58.08
47716;BME280;33476;50.984;3.538;2023-05-29T01:47:49;102345.00;;;16.62;57.72
47716;BME280;33476;50.984;3.538;2023-05-29T01:50:17;102344.31;;;16.58;57.65
47716;BME280;33476;50.984;3.538;2023-05-29T01:52:43;102347.13;;;16.55;57.58
47716;BME280;33476;50.984;3.538;2023-05-29T01:55:09;102350.03;;;16.49;57.65
47716;BME280;33476;50.984;3.538;2023-05-29T01:57:35;102352.03;;;16.44;57.59
47716;BME280;33476;50.984;3.538;2023-05-29T02:00:03;102349.31;;;16.46;57.63
47716;BME280;33476;50.984;3.538;2023-05-29T02:02:38;102353.25;;;16.37;57.37
47716;BME280;33476;50.984;3.538;2023-05-29T02:05:05;102354.19;;;16.36;57.32
47716;BME280;33476;50.984;3.538;2023-05-29T02:07:31;102358.78;;;16.33;57.25
47716;BME280;33476;50.984;3.538;2023-05-29T02:09:56;102364.91;;;16.33;57.17
47716;BME280;33476;50.984;3.538;2023-05-29T02:12:22;102357.25;;;16.27;57.21
47716;BME280;33476;50.984;3.538;2023-05-29T02:14:47;102360.13;;;16.22;56.75
47716;BME280;33476;50.984;3.538;2023-05-29T02:17:13;102364.09;;;16.12;56.72
47716;BME280;33476;50.984;3.538;2023-05-29T02:19:39;102363.13;;;16.15;56.58
47716;BME280;33476;50.984;3.538;2023-05-29T02:22:05;102358.72;;;16.15;56.30
47716;BME280;33476;50.984;3.538;2023-05-29T02:24:30;102358.72;;;16.15;56.03
47716;BME280;33476;50.984;3.538;2023-05-29T02:26:56;102364.97;;;16.13;55.87
47716;BME280;33476;50.984;3.538;2023-05-29T02:29:21;102360.53;;;16.13;55.74
47716;BME280;33476;50.984;3.538;2023-05-29T02:31:46;102359.69;;;16.13;55.47
47716;BME280;33476;50.984;3.538;2023-05-29T02:34:12;102364.97;;;16.13;55.38
47716;BME280;33476;50.984;3.538;2023-05-29T02:36:37;102363.25;;;16.12;55.30
47716;BME280;33476;50.984;3.538;2023-05-29T02:39:04;102354.72;;;16.07;55.53
47716;BME280;33476;50.984;3.538;2023-05-29T02:41:31;102362.69;;;16.05;55.35
47716;BME280;33476;50.984;3.538;2023-05-29T02:43:56;102357.63;;;16.00;55.27
47716;BME280;33476;50.984;3.538;2023-05-29T02:46:21;102359.63;;;15.95;55.36
47716;BME280;33476;50.984;3.538;2023-05-29T02:48:47;102350.09;;;15.93;55.41
47716;BME280;33476;50.984;3.538;2023-05-29T02:51:13;102359.00;;;15.90;55.62
47716;BME280;33476;50.984;3.538;2023-05-29T02:53:38;102358.13;;;15.90;55.40
47716;BME280;33476;50.984;3.538;2023-05-29T02:56:04;102358.41;;;15.84;55.76
47716;BME280;33476;50.984;3.538;2023-05-29T02:58:30;102360.31;;;15.80;55.64
47716;BME280;33476;50.984;3.538;2023-05-29T03:00:55;102359.41;;;15.81;55.49
47716;BME280;33476;50.984;3.538;2023-05-29T03:03:20;102357.56;;;15.83;55.40
47716;BME280;33476;50.984;3.538;2023-05-29T03:05:46;102366.31;;;15.84;55.13
47716;BME280;33476;50.984;3.538;2023-05-29T03:08:12;102369.09;;;15.81;55.12
47716;BME280;33476;50.984;3.538;2023-05-29T03:10:37;102368.63;;;15.71;55.17
47716;BME280;33476;50.984;3.538;2023-05-29T03:13:03;102376.69;;;15.68;55.05
47716;BME280;33476;50.984;3.538;2023-05-29T03:15:28;102374.19;;;15.65;55.24
47716;BME280;33476;50.984;3.538;2023-05-29T03:17:54;102375.06;;;15.65;54.96
47716;BME280;33476;50.984;3.538;2023-05-29T03:20:20;102377.75;;;15.64;55.03
47716;BME280;33476;50.984;3.538;2023-05-29T03:22:45;102373.47;;;15.61;54.71
47716;BME280;33476;50.984;3.538;2023-05-29T03:25:10;102371.88;;;15.57;54.95
47716;BME280;33476;50.984;3.538;2023-05-29T03:27:36;102369.50;;;15.51;55.01
47716;BME280;33476;50.984;3.538;2023-05-29T03:30:02;102367.66;;;15.53;54.98
47716;BME280;33476;50.984;3.538;2023-05-29T03:32:28;102352.91;;;15.49;54.94
47716;BME280;33476;50.984;3.538;2023-05-29T03:34:53;102364.31;;;15.50;54.64
47716;BME280;33476;50.984;3.538;2023-05-29T03:37:19;102361.75;;;15.48;54.63
47716;BME280;33476;50.984;3.538;2023-05-29T03:39:44;102362.78;;;15.44;54.81
47716;BME280;33476;50.984;3.538;2023-05-29T03:42:10;102374.31;;;15.41;54.63
47716;BME280;33476;50.984;3.538;2023-05-29T03:44:35;102376.28;;;15.36;54.63
47716;BME280;33476;50.984;3.538;2023-05-29T03:47:00;102377.97;;;15.37;54.76
47716;BME280;33476;50.984;3.538;2023-05-29T03:49:26;102377.06;;;15.38;54.82
47716;BME280;33476;50.984;3.538;2023-05-29T03:51:51;102384.09;;;15.38;54.57
47716;BME280;33476;50.984;3.538;2023-05-29T03:54:16;102379.13;;;15.32;54.92
47716;BME280;33476;50.984;3.538;2023-05-29T03:56:42;102385.09;;;15.35;54.58
47716;BME280;33476;50.984;3.538;2023-05-29T03:59:08;102386.16;;;15.31;54.63
47716;BME280;33476;50.984;3.538;2023-05-29T04:01:34;102396.63;;;15.33;54.78
47716;BME280;33476;50.984;3.538;2023-05-29T04:03:59;102400.22;;;15.30;54.45
47716;BME280;33476;50.984;3.538;2023-05-29T04:06:25;102403.22;;;15.23;54.71
47716;BME280;33476;50.984;3.538;2023-05-29T04:08:50;102402.47;;;15.19;54.68
47716;BME280;33476;50.984;3.538;2023-05-29T04:11:16;102408.66;;;15.18;54.64
47716;BME280;33476;50.984;3.538;2023-05-29T04:13:41;102416.63;;;15.16;54.71
47716;BME280;33476;50.984;3.538;2023-05-29T04:16:07;102426.09;;;15.21;54.66
47716;BME280;33476;50.984;3.538;2023-05-29T04:18:32;102430.38;;;15.23;54.74
47716;BME280;33476;50.984;3.538;2023-05-29T04:20:58;102419.72;;;15.26;54.60
47716;BME280;33476;50.984;3.538;2023-05-29T04:23:23;102425.75;;;15.28;54.54
47716;BME280;33476;50.984;3.538;2023-05-29T04:25:49;102420.56;;;15.27;54.50
47716;BME280;33476;50.984;3.538;2023-05-29T04:28:16;102418.53;;;15.33;54.51
47716;BME280;33476;50.984;3.538;2023-05-29T04:30:42;102418.63;;;15.32;54.37
47716;BME280;33476;50.984;3.538;2023-05-29T04:33:07;102418.66;;;15.30;54.31
47716;BME280;33476;50.984;3.538;2023-05-29T04:35:34;102430.56;;;15.18;54.72
47716;BME280;33476;50.984;3.538;2023-05-29T04:38:00;102418.25;;;15.19;54.75
47716;BME280;33476;50.984;3.538;2023-05-29T04:40:26;102427.16;;;15.16;54.63
47716;BME280;33476;50.984;3.538;2023-05-29T04:42:51;102435.13;;;15.15;54.62
47716;BME280;33476;50.984;3.538;2023-05-29T04:45:19;102434.28;;;15.13;54.69
47716;BME280;33476;50.984;3.538;2023-05-29T04:47:45;102440.47;;;15.12;54.80
47716;BME280;33476;50.984;3.538;2023-05-29T04:50:12;102443.88;;;15.15;54.70
47716;BME280;33476;50.984;3.538;2023-05-29T04:52:37;102431.72;;;15.11;54.69
47716;BME280;33476;50.984;3.538;2023-05-29T04:55:03;102442.34;;;15.10;54.55
47716;BME280;33476;50.984;3.538;2023-05-29T04:57:29;102438.16;;;15.04;54.77
47716;BME280;33476;50.984;3.538;2023-05-29T04:59:54;102450.41;;;15.05;54.90
47716;BME280;33476;50.984;3.538;2023-05-29T05:02:20;102444.41;;;15.02;54.71
47716;BME280;33476;50.984;3.538;2023-05-29T05:04:45;102454.09;;;15.01;54.89
47716;BME280;33476;50.984;3.538;2023-05-29T05:07:11;102450.59;;;15.01;55.02
47716;BME280;33476;50.984;3.538;2023-05-29T05:09:37;102444.41;;;15.02;55.02
47716;BME280;33476;50.984;3.538;2023-05-29T05:12:03;102447.84;;;15.04;54.81
47716;BME280;33476;50.984;3.538;2023-05-29T05:14:28;102453.31;;;14.99;54.72
47716;BME280;33476;50.984;3.538;2023-05-29T05:16:53;102450.53;;;15.02;55.11
47716;BME280;33476;50.984;3.538;2023-05-29T05:19:19;102448.81;;;15.01;55.06
47716;BME280;33476;50.984;3.538;2023-05-29T05:21:44;102458.28;;;15.05;54.93
47716;BME280;33476;50.984;3.538;2023-05-29T05:24:09;102459.97;;;15.08;54.90
47716;BME280;33476;50.984;3.538;2023-05-29T05:26:35;102456.19;;;15.13;54.99
47716;BME280;33476;50.984;3.538;2023-05-29T05:29:00;102457.88;;;15.16;54.84
47716;BME280;33476;50.984;3.538;2023-05-29T05:31:26;102468.09;;;15.24;54.86
47716;BME280;33476;50.984;3.538;2023-05-29T05:33:52;102460.97;;;15.26;54.83
47716;BME280;33476;50.984;3.538;2023-05-29T05:36:17;102463.38;;;15.32;54.92
47716;BME280;33476;50.984;3.538;2023-05-29T05:38:42;102472.69;;;15.39;54.70
47716;BME280;33476;50.984;3.538;2023-05-29T05:41:08;102472.59;;;15.42;54.70
47716;BME280;33476;50.984;3.538;2023-05-29T05:43:33;102465.16;;;15.52;54.46
47716;BME280;33476;50.984;3.538;2023-05-29T05:45:59;102472.91;;;15.55;54.47
47716;BME280;33476;50.984;3.538;2023-05-29T05:48:24;102464.81;;;15.59;54.17
47716;BME280;33476;50.984;3.538;2023-05-29T05:50:49;102479.69;;;15.60;53.82
47716;BME280;33476;50.984;3.538;2023-05-29T05:53:15;102472.72;;;15.59;54.01
47716;BME280;33476;50.984;3.538;2023-05-29T05:55:41;102484.94;;;15.62;53.76
47716;BME280;33476;50.984;3.538;2023-05-29T05:58:07;102482.81;;;15.70;53.84
47716;BME280;33476;50.984;3.538;2023-05-29T06:00:32;102489.28;;;15.83;53.68
47716;BME280;33476;50.984;3.538;2023-05-29T06:02:57;102483.75;;;15.89;53.23
47716;BME280;33476;50.984;3.538;2023-05-29T06:05:23;102497.84;;;15.88;52.80
47716;BME280;33476;50.984;3.538;2023-05-29T06:07:48;102491.66;;;15.89;52.46
47716;BME280;33476;50.984;3.538;2023-05-29T06:10:14;102503.63;;;15.96;52.45
47716;BME280;33476;50.984;3.538;2023-05-29T06:12:39;102500.88;;;15.99;52.24
47716;BME280;33476;50.984;3.538;2023-05-29T06:15:05;102509.41;;;16.05;52.32
47716;BME280;33476;50.984;3.538;2023-05-29T06:17:32;102499.69;;;16.07;52.08
47716;BME280;33476;50.984;3.538;2023-05-29T06:19:57;102497.84;;;16.09;51.91
47716;BME280;33476;50.984;3.538;2023-05-29T06:22:22;102494.97;;;16.13;52.24
47716;BME280;33476;50.984;3.538;2023-05-29T06:24:48;102509.56;;;16.22;51.96
47716;BME280;33476;50.984;3.538;2023-05-29T06:27:13;102497.66;;;16.32;51.69
47716;BME280;33476;50.984;3.538;2023-05-29T06:29:38;102497.16;;;16.43;51.17
47716;BME280;33476;50.984;3.538;2023-05-29T06:32:04;102486.41;;;16.47;51.17
47716;BME280;33476;50.984;3.538;2023-05-29T06:34:30;102497.00;;;16.46;50.68
47716;BME280;33476;50.984;3.538;2023-05-29T06:36:55;102493.53;;;16.45;51.14
47716;BME280;33476;50.984;3.538;2023-05-29T06:39:20;102502.66;;;16.57;51.28
47716;BME280;33476;50.984;3.538;2023-05-29T06:41:46;102502.50;;;16.60;50.99
47716;BME280;33476;50.984;3.538;2023-05-29T06:44:11;102501.31;;;16.67;51.08
47716;BME280;33476;50.984;3.538;2023-05-29T06:46:37;102509.09;;;16.70;50.61
47716;BME280;33476;50.984;3.538;2023-05-29T06:49:02;102507.97;;;16.76;50.73
47716;BME280;33476;50.984;3.538;2023-05-29T06:51:27;102508.31;;;16.87;50.23
47716;BME280;33476;50.984;3.538;2023-05-29T06:53:53;102506.81;;;17.00;50.49
47716;BME280;33476;50.984;3.538;2023-05-29T06:56:18;102494.66;;;17.15;50.31
47716;BME280;33476;50.984;3.538;2023-05-29T06:58:43;102503.81;;;17.25;49.69
47716;BME280;33476;50.984;3.538;2023-05-29T07:01:10;102506.25;;;17.30;49.38
47716;BME280;33476;50.984;3.538;2023-05-29T07:03:36;102500.03;;;17.31;49.47
47716;BME280;33476;50.984;3.538;2023-05-29T07:06:02;102502.31;;;17.38;49.29
47716;BME280;33476;50.984;3.538;2023-05-29T07:08:28;102502.81;;;17.45;49.86
47716;BME280;33476;50.984;3.538;2023-05-29T07:10:53;102510.31;;;17.54;49.75
47716;BME280;33476;50.984;3.538;2023-05-29T07:13:19;102507.03;;;17.66;49.52
47716;BME280;33476;50.984;3.538;2023-05-29T07:15:44;102510.44;;;17.68;49.43
47716;BME280;33476;50.984;3.538;2023-05-29T07:18:10;102511.03;;;17.75;49.23
47716;BME280;33476;50.984;3.538;2023-05-29T07:20:36;102504.59;;;17.81;49.20
47716;BME280;33476;50.984;3.538;2023-05-29T07:23:02;102507.06;;;17.84;49.00
47716;BME280;33476;50.984;3.538;2023-05-29T07:25:28;102506.66;;;17.91;49.01
47716;BME280;33476;50.984;3.538;2023-05-29T07:27:54;102503.72;;;17.98;48.88
47716;BME280;33476;50.984;3.538;2023-05-29T07:30:19;102508.75;;;18.02;48.91
47716;BME280;33476;50.984;3.538;2023-05-29T07:32:45;102515.28;;;18.12;47.99
47716;BME280;33476;50.984;3.538;2023-05-29T07:35:10;102500.94;;;18.16;47.70
47716;BME280;33476;50.984;3.538;2023-05-29T07:37:36;102502.50;;;18.20;47.49
47716;BME280;33476;50.984;3.538;2023-05-29T07:40:03;102493.13;;;18.31;47.40
47716;BME280;33476;50.984;3.538;2023-05-29T07:42:32;102496.03;;;18.42;47.06
47716;BME280;33476;50.984;3.538;2023-05-29T07:44:58;102499.38;;;18.45;47.58
47716;BME280;33476;50.984;3.538;2023-05-29T07:47:23;102499.31;;;18.47;46.96
47716;BME280;33476;50.984;3.538;2023-05-29T07:49:48;102498.69;;;18.42;47.11
47716;BME280;33476;50.984;3.538;2023-05-29T07:52:14;102506.72;;;18.56;47.05
47716;BME280;33476;50.984;3.538;2023-05-29T07:54:39;102506.06;;;18.68;46.97
47716;BME280;33476;50.984;3.538;2023-05-29T07:57:04;102498.13;;;18.84;46.75
47716;BME280;33476;50.984;3.538;2023-05-29T07:59:35;102506.78;;;18.88;45.96
47716;BME280;33476;50.984;3.538;2023-05-29T08:02:00;102499.78;;;18.87;45.72
47716;BME280;33476;50.984;3.538;2023-05-29T08:04:28;102506.59;;;18.91;45.20
47716;BME280;33476;50.984;3.538;2023-05-29T08:06:54;102509.34;;;18.89;45.42
47716;BME280;33476;50.984;3.538;2023-05-29T08:09:19;102499.50;;;18.91;45.43
47716;BME280;33476;50.984;3.538;2023-05-29T08:11:44;102505.56;;;18.93;45.80
47716;BME280;33476;50.984;3.538;2023-05-29T08:14:12;102505.81;;;19.04;45.75
47716;BME280;33476;50.984;3.538;2023-05-29T08:16:37;102509.91;;;19.10;45.43
47716;BME280;33476;50.984;3.538;2023-05-29T08:19:03;102499.25;;;19.12;45.17
47716;BME280;33476;50.984;3.538;2023-05-29T08:21:29;102507.00;;;19.15;45.15
47716;BME280;33476;50.984;3.538;2023-05-29T08:23:55;102501.44;;;19.19;44.77
47716;BME280;33476;50.984;3.538;2023-05-29T08:26:20;102503.28;;;19.33;44.96
47716;BME280;33476;50.984;3.538;2023-05-29T08:28:46;102507.88;;;19.45;44.78
47716;BME280;33476;50.984;3.538;2023-05-29T08:31:11;102506.66;;;19.51;44.61
47716;BME280;33476;50.984;3.538;2023-05-29T08:33:37;102498.81;;;19.49;44.24
47716;BME280;33476;50.984;3.538;2023-05-29T08:36:02;102521.59;;;19.52;44.16
47716;BME280;33476;50.984;3.538;2023-05-29T08:38:28;102510.25;;;19.50;44.30
47716;BME280;33476;50.984;3.538;2023-05-29T08:40:56;102518.50;;;19.45;44.20
47716;BME280;33476;50.984;3.538;2023-05-29T08:43:23;102517.94;;;19.54;44.30
47716;BME280;33476;50.984;3.538;2023-05-29T08:45:59;102531.69;;;19.61;44.21
47716;BME280;33476;50.984;3.538;2023-05-29T08:48:27;102515.28;;;19.70;43.94
47716;BME280;33476;50.984;3.538;2023-05-29T08:50:54;102527.75;;;19.68;44.05
47716;BME280;33476;50.984;3.538;2023-05-29T08:53:24;102526.63;;;19.72;43.59
47716;BME280;33476;50.984;3.538;2023-05-29T08:55:51;102526.94;;;19.82;43.95
47716;BME280;33476;50.984;3.538;2023-05-29T08:58:20;102524.97;;;20.00;43.73
47716;BME280;33476;50.984;3.538;2023-05-29T09:00:49;102532.09;;;20.13;43.41
47716;BME280;33476;50.984;3.538;2023-05-29T09:03:15;102536.19;;;20.19;43.40
47716;BME280;33476;50.984;3.538;2023-05-29T09:05:41;102548.59;;;20.33;43.21
47716;BME280;33476;50.984;3.538;2023-05-29T09:08:08;102545.47;;;20.40;43.17
47716;BME280;33476;50.984;3.538;2023-05-29T09:10:35;102534.50;;;20.46;42.41
47716;BME280;33476;50.984;3.538;2023-05-29T09:13:00;102531.53;;;20.51;42.57
47716;BME280;33476;50.984;3.538;2023-05-29T09:15:26;102541.88;;;20.56;42.43
47716;BME280;33476;50.984;3.538;2023-05-29T09:17:54;102547.41;;;20.53;42.31
47716;BME280;33476;50.984;3.538;2023-05-29T09:20:21;102542.16;;;20.51;42.28
47716;BME280;33476;50.984;3.538;2023-05-29T09:22:56;102549.38;;;20.49;42.32
47716;BME280;33476;50.984;3.538;2023-05-29T09:25:23;102554.41;;;20.54;42.29
47716;BME280;33476;50.984;3.538;2023-05-29T09:28:02;102555.91;;;20.58;42.30
47716;BME280;33476;50.984;3.538;2023-05-29T09:32:59;102547.63;;;20.76;42.32
47716;BME280;33476;50.984;3.538;2023-05-29T09:35:26;102540.59;;;20.90;42.58
47716;BME280;33476;50.984;3.538;2023-05-29T09:37:52;102532.28;;;21.09;42.87
47716;BME280;33476;50.984;3.538;2023-05-29T09:40:17;102538.78;;;21.17;42.07
47716;BME280;33476;50.984;3.538;2023-05-29T09:42:43;102544.03;;;21.19;41.61
47716;BME280;33476;50.984;3.538;2023-05-29T09:45:08;102542.31;;;21.18;41.64
47716;BME280;33476;50.984;3.538;2023-05-29T09:47:34;102534.91;;;21.23;41.83
47716;BME280;33476;50.984;3.538;2023-05-29T09:50:00;102542.13;;;21.21;41.46
47716;BME280;33476;50.984;3.538;2023-05-29T09:52:28;102548.38;;;21.20;41.86
47716;BME280;33476;50.984;3.538;2023-05-29T09:54:55;102550.47;;;21.29;41.30
47716;BME280;33476;50.984;3.538;2023-05-29T09:57:22;102542.59;;;21.27;41.09
47716;BME280;33476;50.984;3.538;2023-05-29T09:59:49;102534.22;;;21.34;40.83
47716;BME280;33476;50.984;3.538;2023-05-29T10:02:16;102543.13;;;21.33;41.25
47716;BME280;33476;50.984;3.538;2023-05-29T10:04:43;102545.41;;;21.39;41.02
47716;BME280;33476;50.984;3.538;2023-05-29T10:07:27;102548.28;;;21.48;41.59
47716;BME280;33476;50.984;3.538;2023-05-29T10:09:59;102544.06;;;21.58;41.78
47716;BME280;33476;50.984;3.538;2023-05-29T10:12:27;102551.53;;;21.66;40.67
47716;BME280;33476;50.984;3.538;2023-05-29T10:14:56;102543.25;;;21.71;39.95
47716;BME280;33476;50.984;3.538;2023-05-29T10:17:25;102539.41;;;21.62;39.94
47716;BME280;33476;50.984;3.538;2023-05-29T10:19:54;102541.22;;;21.62;40.21
47716;BME280;33476;50.984;3.538;2023-05-29T10:22:23;102540.03;;;21.66;40.54
47716;BME280;33476;50.984;3.538;2023-05-29T10:24:50;102533.78;;;21.79;40.25
47716;BME280;33476;50.984;3.538;2023-05-29T10:27:16;102534.44;;;21.96;40.50
47716;BME280;33476;50.984;3.538;2023-05-29T10:30:04;102535.72;;;22.03;40.02
47716;BME280;33476;50.984;3.538;2023-05-29T10:35:17;102528.84;;;22.13;39.35
47716;BME280;33476;50.984;3.538;2023-05-29T10:38:13;102526.13;;;22.00;39.87
47716;BME280;33476;50.984;3.538;2023-05-29T10:40:41;102544.34;;;22.06;39.89
47716;BME280;33476;50.984;3.538;2023-05-29T10:43:07;102535.22;;;22.10;39.98
47716;BME280;33476;50.984;3.538;2023-05-29T10:50:40;102513.78;;;22.37;39.45
47716;BME280;33476;50.984;3.538;2023-05-29T10:53:07;102529.03;;;22.35;38.92
47716;BME280;33476;50.984;3.538;2023-05-29T10:55:39;102530.19;;;22.31;38.93
47716;BME280;33476;50.984;3.538;2023-05-29T10:58:21;102521.69;;;22.26;39.23
47716;BME280;33476;50.984;3.538;2023-05-29T11:00:51;102533.16;;;22.39;38.77
47716;BME280;33476;50.984;3.538;2023-05-29T11:03:24;102537.34;;;22.43;38.60
47716;BME280;33476;50.984;3.538;2023-05-29T11:06:03;102522.41;;;22.41;39.02
47716;BME280;33476;50.984;3.538;2023-05-29T11:08:55;102523.78;;;22.59;38.94
47716;BME280;33476;50.984;3.538;2023-05-29T11:13:53;102520.38;;;22.81;38.17
47716;BME280;33476;50.984;3.538;2023-05-29T11:16:35;102510.94;;;22.77;38.61
47716;BME280;33476;50.984;3.538;2023-05-29T11:19:07;102506.44;;;22.90;38.35
47716;BME280;33476;50.984;3.538;2023-05-29T11:21:49;102504.72;;;22.89;38.07
47716;BME280;33476;50.984;3.538;2023-05-29T11:24:24;102508.31;;;23.01;38.21
47716;BME280;33476;50.984;3.538;2023-05-29T11:26:51;102512.03;;;23.22;38.24
47716;BME280;33476;50.984;3.538;2023-05-29T11:29:30;102512.41;;;23.18;38.79
47716;BME280;33476;50.984;3.538;2023-05-29T11:32:01;102511.88;;;23.13;37.78
47716;BME280;33476;50.984;3.538;2023-05-29T11:34:29;102509.78;;;23.05;38.04
47716;BME280;33476;50.984;3.538;2023-05-29T11:37:01;102511.75;;;23.14;37.88
47716;BME280;33476;50.984;3.538;2023-05-29T11:39:28;102510.09;;;23.24;38.02
47716;BME280;33476;50.984;3.538;2023-05-29T11:41:54;102511.31;;;23.20;37.68
47716;BME280;33476;50.984;3.538;2023-05-29T11:44:20;102509.25;;;23.24;36.83
47716;BME280;33476;50.984;3.538;2023-05-29T11:46:45;102505.97;;;23.20;38.18
47716;BME280;33476;50.984;3.538;2023-05-29T11:49:11;102511.59;;;23.29;38.30
47716;BME280;33476;50.984;3.538;2023-05-29T11:51:36;102513.28;;;23.30;37.61
47716;BME280;33476;50.984;3.538;2023-05-29T11:54:02;102505.56;;;23.38;37.58
47716;BME280;33476;50.984;3.538;2023-05-29T11:56:28;102504.72;;;23.37;37.13
47716;BME280;33476;50.984;3.538;2023-05-29T11:58:54;102502.66;;;23.41;37.38
47716;BME280;33476;50.984;3.538;2023-05-29T12:01:22;102496.97;;;23.45;36.70
47716;BME280;33476;50.984;3.538;2023-05-29T12:03:49;102508.84;;;23.41;37.54
47716;BME280;33476;50.984;3.538;2023-05-29T12:06:14;102497.31;;;23.41;37.14
47716;BME280;33476;50.984;3.538;2023-05-29T12:08:40;102489.72;;;23.47;37.92
47716;BME280;33476;50.984;3.538;2023-05-29T12:11:06;102508.66;;;23.55;37.40
47716;BME280;33476;50.984;3.538;2023-05-29T12:13:32;102493.19;;;23.61;36.96
47716;BME280;33476;50.984;3.538;2023-05-29T12:15:59;102487.97;;;23.70;36.61
47716;BME280;33476;50.984;3.538;2023-05-29T12:18:27;102492.72;;;23.67;36.85
47716;BME280;33476;50.984;3.538;2023-05-29T12:21:03;102492.88;;;23.52;36.37
47716;BME280;33476;50.984;3.538;2023-05-29T12:23:29;102490.44;;;23.49;36.39
47716;BME280;33476;50.984;3.538;2023-05-29T12:25:56;102491.41;;;23.48;37.25
47716;BME280;33476;50.984;3.538;2023-05-29T12:28:22;102485.59;;;23.54;37.05
47716;BME280;33476;50.984;3.538;2023-05-29T12:30:48;102487.31;;;23.55;37.34
47716;BME280;33476;50.984;3.538;2023-05-29T12:33:29;102486.91;;;23.49;37.67
47716;BME280;33476;50.984;3.538;2023-05-29T12:36:05;102491.53;;;23.58;37.48
47716;BME280;33476;50.984;3.538;2023-05-29T12:38:32;102496.69;;;23.61;36.93
47716;BME280;33476;50.984;3.538;2023-05-29T12:40:57;102496.81;;;23.60;37.07
47716;BME280;33476;50.984;3.538;2023-05-29T12:43:22;102490.38;;;23.62;36.66
47716;BME280;33476;50.984;3.538;2023-05-29T12:45:54;102491.13;;;23.64;37.51
47716;BME280;33476;50.984;3.538;2023-05-29T12:48:20;102486.50;;;23.66;38.01
47716;BME280;33476;50.984;3.538;2023-05-29T12:50:48;102497.69;;;23.71;37.81
47716;BME280;33476;50.984;3.538;2023-05-29T12:53:15;102485.69;;;23.77;37.74
47716;BME280;33476;50.984;3.538;2023-05-29T12:55:42;102493.81;;;23.75;37.43
47716;BME280;33476;50.984;3.538;2023-05-29T12:58:11;102493.69;;;23.77;37.86
47716;BME280;33476;50.984;3.538;2023-05-29T13:00:39;102480.13;;;23.91;37.77
47716;BME280;33476;50.984;3.538;2023-05-29T13:03:05;102490.31;;;23.97;36.87
47716;BME280;33476;50.984;3.538;2023-05-29T13:05:31;102496.75;;;23.95;37.23
47716;BME280;33476;50.984;3.538;2023-05-29T13:07:57;102494.09;;;23.95;37.25
47716;BME280;33476;50.984;3.538;2023-05-29T13:10:25;102501.59;;;23.90;37.07
47716;BME280;33476;50.984;3.538;2023-05-29T13:12:50;102494.34;;;23.92;36.83